Accueil
METAR-TAF:

METAR-TAF

Aéroports :

Nanaimo, Colombie-Britannique, Canada

latitude: 49-03N, longitude: 123-52W, altitude: 28 m

Observation

Le bulletin a été fait il y a 4 heures et 44 minutes, à 05:00 UTC
Vent 4 kt de ouest
Température 1°C
Humidité 75%
Pression 1016 hPa
Visibilité: 40.2 km
Ciel clair

METAR: CYCD 210500Z 27004KT 25SM SKC 01/M03 A2999 RMK LAST STFD OBS/NEXT 211400Z SLP159

Heure: 01:44 (09:44 UTC)

Prévision

Le bulletin a été fait il y a 10 heures et 6 minutes, à 23:38 UTC
Prévision valable du 21 à 00 UTC au 21 à 05 UTC
Vent 8 kt de nord
Visibilité: 10 km
Quelques nuages à une hauteur de 4000 ft
Nuages épars à une hauteur de 9000 ft

TAF: CYCD 202338Z 2100/2105 35008KT P6SM FEW040 SCT090 RMK NXT FCST WILL BE ISSUED AT 211545Z

Observations et prévisions météorologiques de plus de 4000 aéroports (messages METAR et TAF).

Les stations disponibles sont représentées par des disques jaunes et rouges sur la carte.

Passer la souris dessus pour voir le nom de la station.

Cliquer dessus pour voir les observations et prévisions météorologiques.

Pour changer de carte: cliquez sur les boutons verts avec une croix noire pour zoomer, sur le bouton vert avec un tiret pour effectuer un zoom arrière, ou sur les flèches vertes pour les cartes adjacentes.


METAR-TAF: